Meath Environmental Platform

Observations

Time Sensor AQI SAQ Temp °C Hum % Pres Pa CO μg/m³ H₂S μg/m³ NO μg/m³ NO₂ μg/m³ O₃ μg/m³ SO₂ μg/m³ CO₂e PPM VOC PPM PM1 μg/m³ PM2.5 μg/m³ PM4 μg/m³ PM10 μg/m³ TPS µm
Wednesday 12 August 2026
13:20 Trim Patrick St 2 35.4 33 69,587 0 0 0.24 9.7 108.11 20.59 2.86 9.11 10.02
13:19 Trim Patrick St 2 35.4 33 69,583 0 0 0.23 11.62 105.45 19.43 4.57 10.68 11.74
13:18 Trim Patrick St 2 35.4 32 69,610 0 0 0.24 7.95 87.84 20.28 3.71 9.92 10.91
13:17 Trim Patrick St 2 35.4 33 69,612 0 0 0.23 12.37 123 19.66 3.71 9.9 10.89
13:16 Trim Patrick St 2 35.4 32 69,614 0 0 0.23 9.15 81.29 19.57 3.71 9.92 10.91
13:15 Trim Market St 2 41.6 24 67,234 0 0 0 14 118.36 4.96 1.43 4.65 5.11
13:14 Trim Patrick St 2 35.3 33 69,599 0 0 0.23 8.94 99.1 20.65 5.43 11.45 12.6
13:10 Trim Patrick St 2 35.1 33 69,543 0 0 0.27 8.15 90.28 20.56 4.57 11.47 12.62
13:09 Trim Patrick St 2 35.1 33 69,563 0 0 0.26 10.12 99.8 19.87 3.71 9.86 10.84
13:08 Trim Patrick St 2 35.1 34 69,555 0 0 0.26 10.42 101.3 19.98 3.71 9.83 10.82
13:07 Trim Market St 2 41.4 25 67,257 0 0 0 13.05 105.49 4.84 1.43 4.64 5.1
13:07 Trim Patrick St 2 35.1 34 69,575 0 0 0.26 8.37 106.66 20.65 3.71 10.65 11.71
13:06 Trim Market St 2 41.4 25 67,270 0 0 0 12.67 108.54 5.51 0.71 3.53 3.88
13:06 Trim Patrick St 2 35.1 33 69,569 0 0 0.27 10.99 99.93 18.61 3.71 9.07 9.98
13:05 Trim Market St 2 41.5 24 67,260 0 0 0 12.92 104 4.53 0.71 4.11 4.52
13:05 Trim Patrick St 2 35.1 34 69,597 0 0 0.27 11.24 133.56 20.05 3.71 9.85 10.83
13:04 Trim Market St 2 41.6 24 67,247 0 0 0 13.45 94.59 4.62 1.43 5.75 6.63
13:04 Trim Patrick St 2 35.2 33 69,599 0 0 0.25 11.48 97.36 19.07 2.86 9.06 9.97
13:03 Trim Market St 2 41.6 24 67,257 0 0 0 13.97 111.85 4.61 0.71 4.67 5.14
13:03 Trim Patrick St 2 35.2 33 69,606 0 0 0.25 9.63 103.24 19.49 3.71 9.89 10.88